Time;durP1;ratioP1;P1;durP2;ratioP2;P2;SDS_P1;SDS_P2;PMS_P1;PMS_P2;Temp;Humidity;BMP_temperature;BMP_pressure;BME280_temperature;BME280_humidity;BME280_pressure;Samples;Min_cycle;Max_cycle;Signal;HPM_P1;HPM_P2
2023/05/19 00:00:13;;;;;;;4.53;1.87;;;18.50;64.70;;;;;;4945987;28;20480;-72
2023/05/19 00:02:42;;;;;;;3.20;1.63;;;18.50;64.70;;;;;;4949612;28;20480;-72
2023/05/19 00:05:13;;;;;;;4.27;2.00;;;18.50;64.80;;;;;;4949770;28;20952;-72
2023/05/19 00:07:44;;;;;;;3.47;2.10;;;18.60;64.90;;;;;;4945442;28;20555;-72
2023/05/19 00:10:16;;;;;;;3.10;2.00;;;18.60;64.90;;;;;;4945294;28;20768;-72
2023/05/19 00:12:45;;;;;;;3.00;2.10;;;18.60;64.80;;;;;;4946225;28;20925;-72
2023/05/19 00:15:15;;;;;;;3.00;2.13;;;18.50;64.80;;;;;;4946839;28;20440;-73
2023/05/19 00:17:43;;;;;;;4.73;2.67;;;18.50;64.70;;;;;;4945790;28;20423;-73
2023/05/19 00:20:13;;;;;;;3.00;2.23;;;18.60;64.70;;;;;;4962874;28;20901;-72
2023/05/19 00:22:42;;;;;;;2.70;2.13;;;18.50;64.70;;;;;;4948469;28;20471;-73
2023/05/19 00:25:11;;;;;;;2.10;1.80;;;18.60;64.80;;;;;;4947676;28;20818;-72
2023/05/19 00:27:41;;;;;;;3.80;2.33;;;18.60;64.80;;;;;;4953470;28;20778;-73
2023/05/19 00:30:10;;;;;;;2.97;2.40;;;18.60;64.90;;;;;;4945179;28;20492;-73
2023/05/19 00:32:38;;;;;;;3.50;2.60;;;18.60;64.80;;;;;;4946079;28;20445;-73
2023/05/19 00:35:08;;;;;;;3.00;2.23;;;18.50;65.20;;;;;;4965250;28;20879;-73
2023/05/19 00:37:36;;;;;;;2.93;2.13;;;18.60;64.80;;;;;;4956552;28;20466;-72
2023/05/19 00:40:06;;;;;;;3.53;2.50;;;18.60;64.80;;;;;;4956526;28;20542;-72
2023/05/19 00:42:35;;;;;;;2.20;2.00;;;18.60;64.90;;;;;;4951133;28;20518;-72
2023/05/19 00:45:06;;;;;;;2.43;1.97;;;18.50;64.80;;;;;;4944595;28;20472;-72
2023/05/19 00:47:35;;;;;;;2.87;2.40;;;18.50;64.80;;;;;;4946322;28;20923;-73
2023/05/19 00:50:03;;;;;;;2.27;2.07;;;18.50;64.70;;;;;;4949353;28;20487;-73
2023/05/19 00:52:32;;;;;;;3.17;2.10;;;18.50;64.70;;;;;;4972358;28;20538;-73
2023/05/19 00:55:01;;;;;;;2.40;1.63;;;18.50;64.80;;;;;;4955893;28;20484;-73
2023/05/19 00:57:30;;;;;;;2.97;2.17;;;18.50;64.80;;;;;;4955535;28;20544;-72
2023/05/19 00:59:58;;;;;;;3.20;2.53;;;18.50;64.70;;;;;;4948574;28;20464;-73
2023/05/19 01:02:29;;;;;;;2.53;2.17;;;18.50;64.90;;;;;;4953007;28;20475;-73
2023/05/19 01:04:59;;;;;;;3.60;2.43;;;18.50;64.90;;;;;;4956980;28;20482;-72
2023/05/19 01:07:28;;;;;;;3.10;1.93;;;18.50;64.80;;;;;;4953774;28;20940;-72
2023/05/19 01:09:57;;;;;;;2.87;1.90;;;18.50;64.80;;;;;;4951378;28;20634;-72
2023/05/19 01:12:26;;;;;;;2.50;1.87;;;18.50;64.90;;;;;;4952706;28;20428;-72
2023/05/19 01:14:55;;;;;;;3.23;2.10;;;18.50;64.90;;;;;;4946658;28;20538;-73
2023/05/19 01:17:33;;;;;;;2.40;2.20;;;18.50;64.90;;;;;;4953401;28;20451;-72
2023/05/19 01:20:09;;;;;;;2.80;2.20;;;18.50;64.80;;;;;;4949716;28;20985;-72
2023/05/19 01:23:03;;;;;;;2.67;2.47;;;18.50;64.90;;;;;;4946656;28;20486;-72
2023/05/19 01:26:20;;;;;;;3.53;2.03;;;18.50;64.80;;;;;;4969069;28;20601;-72
2023/05/19 01:29:10;;;;;;;3.03;1.90;;;18.50;65.00;;;;;;4945661;28;20551;-73
2023/05/19 01:31:43;;;;;;;3.97;2.73;;;18.50;64.90;;;;;;4951205;28;20440;-73
2023/05/19 01:34:13;;;;;;;5.07;2.50;;;18.40;64.80;;;;;;4949514;28;20555;-73
2023/05/19 01:36:43;;;;;;;3.43;2.20;;;18.40;64.70;;;;;;4952282;28;20499;-72
2023/05/19 01:39:14;;;;;;;3.10;2.20;;;18.40;64.80;;;;;;4928090;28;20504;-73
2023/05/19 01:41:45;;;;;;;5.83;2.20;;;18.40;64.70;;;;;;4965901;28;20464;-71
2023/05/19 01:44:14;;;;;;;6.80;1.93;;;18.40;64.80;;;;;;4949371;28;20480;-73
2023/05/19 01:46:46;;;;;;;5.17;2.50;;;18.50;65.00;;;;;;4953325;28;20446;-73
2023/05/19 01:49:14;;;;;;;2.30;2.07;;;18.40;64.80;;;;;;4941221;28;20480;-72
2023/05/19 01:51:45;;;;;;;3.40;2.50;;;18.40;64.90;;;;;;4955145;28;20941;-72
2023/05/19 01:54:13;;;;;;;3.60;2.20;;;18.40;64.80;;;;;;4951136;28;20519;-71
2023/05/19 01:56:52;;;;;;;4.07;2.40;;;18.40;64.90;;;;;;4950394;28;20851;-73
2023/05/19 01:59:41;;;;;;;2.77;2.10;;;18.40;65.00;;;;;;4945759;28;20539;-73
2023/05/19 02:02:21;;;;;;;2.67;2.47;;;18.40;65.10;;;;;;4944885;28;21003;-72
2023/05/19 02:04:55;;;;;;;2.87;2.57;;;18.40;65.10;;;;;;4948996;28;20991;-72
2023/05/19 02:07:31;;;;;;;2.33;1.87;;;18.40;64.90;;;;;;4954582;28;20431;-73
2023/05/19 02:10:06;;;;;;;3.70;2.97;;;18.40;65.00;;;;;;4951919;28;20868;-72
2023/05/19 02:12:38;;;;;;;3.27;2.40;;;18.40;65.00;;;;;;4945708;28;20436;-72
2023/05/19 02:15:11;;;;;;;5.80;2.60;;;18.40;65.00;;;;;;4943957;28;20993;-72
2023/05/19 02:17:46;;;;;;;2.17;1.97;;;18.40;65.00;;;;;;4949278;28;20424;-73
2023/05/19 02:20:16;;;;;;;7.17;3.17;;;18.40;65.00;;;;;;4954074;28;21047;-73
2023/05/19 02:22:45;;;;;;;2.80;2.50;;;18.40;65.00;;;;;;4950835;28;20457;-72
2023/05/19 02:25:14;;;;;;;4.17;2.30;;;18.40;65.00;;;;;;4962481;28;20439;-73
2023/05/19 02:27:42;;;;;;;2.87;2.13;;;18.40;65.00;;;;;;4950932;28;20456;-72
2023/05/19 02:30:11;;;;;;;3.40;2.70;;;18.40;65.00;;;;;;4952884;28;20479;-72
2023/05/19 02:32:41;;;;;;;2.90;2.43;;;18.40;65.00;;;;;;4946721;29;20440;-72
2023/05/19 02:35:10;;;;;;;2.67;2.47;;;18.30;64.90;;;;;;4956945;28;20471;-72
2023/05/19 02:37:38;;;;;;;2.60;2.23;;;18.30;65.00;;;;;;4952359;28;20464;-72
2023/05/19 02:40:08;;;;;;;6.10;2.80;;;18.30;64.90;;;;;;4955100;28;21059;-72
2023/05/19 02:42:36;;;;;;;3.30;2.20;;;18.30;65.00;;;;;;4950993;28;20905;-72
2023/05/19 02:45:06;;;;;;;3.47;2.50;;;18.30;65.00;;;;;;4951468;28;20559;-72
2023/05/19 02:47:35;;;;;;;3.87;2.67;;;18.30;65.00;;;;;;4950352;29;20543;-72
2023/05/19 02:50:08;;;;;;;2.93;2.17;;;18.30;65.00;;;;;;4948836;28;20488;-72
2023/05/19 02:52:36;;;;;;;3.50;2.63;;;18.30;65.10;;;;;;4949154;29;20539;-72
2023/05/19 02:55:06;;;;;;;3.20;2.53;;;18.30;65.10;;;;;;4954502;28;20516;-72
2023/05/19 02:57:35;;;;;;;3.50;2.30;;;18.30;65.20;;;;;;4946427;28;20456;-72
2023/05/19 03:00:04;;;;;;;4.37;2.70;;;18.30;65.20;;;;;;4955019;28;20890;-72
2023/05/19 03:02:34;;;;;;;4.07;2.73;;;18.30;65.30;;;;;;4948142;28;20475;-72
2023/05/19 03:05:03;;;;;;;3.47;2.97;;;18.30;65.30;;;;;;4947231;28;20488;-72
2023/05/19 03:07:33;;;;;;;5.03;3.17;;;18.30;65.10;;;;;;4956434;28;20455;-72
2023/05/19 03:10:04;;;;;;;2.70;2.40;;;18.20;65.20;;;;;;4956074;28;20583;-72
2023/05/19 03:12:33;;;;;;;2.67;2.30;;;18.30;65.10;;;;;;4947583;29;20448;-73
2023/05/19 03:15:01;;;;;;;3.53;2.53;;;18.20;65.10;;;;;;4931047;29;20491;-72
2023/05/19 03:17:32;;;;;;;3.23;2.67;;;18.30;65.20;;;;;;4948014;28;20459;-72
2023/05/19 03:20:01;;;;;;;3.63;2.83;;;18.30;65.20;;;;;;4945293;28;20539;-72
2023/05/19 03:22:33;;;;;;;6.23;2.80;;;18.20;65.00;;;;;;4942703;28;21004;-72
2023/05/19 03:25:03;;;;;;;4.80;2.90;;;18.30;65.10;;;;;;4947974;28;20674;-73
2023/05/19 03:27:32;;;;;;;3.60;2.70;;;18.20;64.90;;;;;;4947847;28;20789;-73
2023/05/19 03:30:01;;;;;;;4.57;2.70;;;18.20;65.10;;;;;;4947759;28;20511;-72
2023/05/19 03:32:36;;;;;;;3.50;2.97;;;18.20;64.90;;;;;;4940007;29;20452;-72
2023/05/19 03:35:06;;;;;;;4.40;2.60;;;18.20;65.00;;;;;;4951263;28;20487;-73
2023/05/19 03:37:36;;;;;;;2.93;2.57;;;18.20;64.90;;;;;;4947932;28;20451;-72
2023/05/19 03:40:06;;;;;;;4.43;2.80;;;18.20;65.00;;;;;;4948466;28;21142;-72
2023/05/19 03:42:40;;;;;;;3.03;2.73;;;18.20;65.10;;;;;;4944105;28;20517;-72
2023/05/19 03:45:09;;;;;;;3.10;2.80;;;18.20;64.90;;;;;;4945433;28;20525;-72
2023/05/19 03:47:38;;;;;;;3.47;2.40;;;18.20;65.00;;;;;;4948731;28;20437;-72
2023/05/19 03:50:30;;;;;;;2.40;2.20;;;18.20;65.10;;;;;;4938189;28;20472;-72
2023/05/19 03:53:14;;;;;;;3.23;2.53;;;18.10;64.90;;;;;;4947884;28;20518;-72
2023/05/19 03:55:43;;;;;;;4.73;2.77;;;18.10;64.90;;;;;;4947254;28;20979;-72
2023/05/19 03:58:13;;;;;;;4.63;3.23;;;18.10;65.00;;;;;;4944268;28;20482;-73
2023/05/19 04:00:42;;;;;;;3.47;2.97;;;18.20;65.10;;;;;;4948164;28;20773;-73
2023/05/19 04:03:10;;;;;;;5.33;2.60;;;18.10;64.90;;;;;;4947032;28;20483;-72
2023/05/19 04:05:41;;;;;;;3.80;2.77;;;18.10;65.10;;;;;;4947392;28;20535;-73
2023/05/19 04:08:09;;;;;;;4.00;3.30;;;18.10;65.10;;;;;;4955760;28;20463;-72
2023/05/19 04:10:39;;;;;;;3.57;2.63;;;18.10;65.10;;;;;;4939735;28;20440;-73
2023/05/19 04:13:07;;;;;;;3.73;2.80;;;18.10;65.10;;;;;;4949020;28;20463;-73
2023/05/19 04:15:36;;;;;;;4.53;3.20;;;18.10;64.90;;;;;;4944859;28;20444;-72
2023/05/19 04:18:05;;;;;;;3.93;3.10;;;18.10;65.00;;;;;;4947455;28;20823;-73
2023/05/19 04:20:33;;;;;;;3.23;2.93;;;18.10;65.00;;;;;;4946893;28;20793;-72
2023/05/19 04:23:03;;;;;;;3.93;3.40;;;18.10;65.00;;;;;;4950464;28;20886;-72
2023/05/19 04:25:32;;;;;;;5.13;3.37;;;18.10;65.00;;;;;;4943146;28;20462;-72
2023/05/19 04:28:02;;;;;;;3.47;3.17;;;18.10;65.10;;;;;;4953736;28;20551;-72
2023/05/19 04:30:32;;;;;;;3.87;3.03;;;18.10;66.30;;;;;;4941224;28;20448;-73
2023/05/19 04:33:02;;;;;;;4.07;3.00;;;18.10;65.00;;;;;;4960456;28;20488;-72
2023/05/19 04:35:31;;;;;;;4.23;3.33;;;18.10;65.20;;;;;;4946393;28;20448;-73
2023/05/19 04:38:02;;;;;;;5.53;3.43;;;18.10;65.30;;;;;;4955101;28;20460;-72
2023/05/19 04:40:33;;;;;;;3.60;3.00;;;18.10;65.10;;;;;;4943233;28;20459;-72
2023/05/19 04:43:03;;;;;;;3.20;2.77;;;18.10;65.10;;;;;;4946431;28;20495;-73
2023/05/19 04:45:32;;;;;;;4.27;2.87;;;18.10;65.10;;;;;;4948567;28;20478;-73
2023/05/19 04:48:02;;;;;;;3.70;3.00;;;18.00;65.20;;;;;;4947707;28;20450;-74
2023/05/19 04:50:32;;;;;;;5.10;3.57;;;18.00;65.20;;;;;;4952142;28;20455;-72
2023/05/19 04:53:01;;;;;;;4.00;2.90;;;18.10;65.20;;;;;;4946664;28;20462;-72
2023/05/19 04:55:30;;;;;;;4.97;2.70;;;18.00;65.30;;;;;;4946426;28;20491;-72
2023/05/19 04:57:58;;;;;;;4.70;2.90;;;18.00;65.20;;;;;;4947953;28;20445;-72
2023/05/19 05:00:30;;;;;;;4.40;3.40;;;18.00;65.20;;;;;;4945427;28;20964;-72
2023/05/19 05:03:04;;;;;;;3.57;3.20;;;18.00;65.20;;;;;;4953499;28;20443;-72
2023/05/19 05:05:34;;;;;;;5.00;3.30;;;18.00;65.20;;;;;;4946240;28;20452;-73
2023/05/19 05:08:03;;;;;;;2.90;2.53;;;18.00;65.20;;;;;;4947596;29;20941;-72
2023/05/19 05:10:36;;;;;;;3.37;2.90;;;18.00;65.20;;;;;;4943785;28;20740;-73
2023/05/19 05:13:05;;;;;;;4.13;2.40;;;18.00;65.20;;;;;;4953562;28;20517;-73
2023/05/19 05:15:36;;;;;;;5.60;2.90;;;18.00;65.10;;;;;;4945734;28;21070;-72
2023/05/19 05:18:06;;;;;;;4.47;2.60;;;18.00;65.20;;;;;;4944582;28;20873;-72
2023/05/19 05:20:35;;;;;;;4.37;3.17;;;18.00;65.10;;;;;;4943306;28;20449;-72
2023/05/19 05:23:05;;;;;;;4.23;3.20;;;18.10;65.20;;;;;;4947114;28;20486;-73
2023/05/19 05:25:35;;;;;;;4.40;3.33;;;18.10;65.20;;;;;;4949142;28;20954;-73
2023/05/19 05:28:04;;;;;;;4.40;2.90;;;18.10;65.20;;;;;;4949363;28;20448;-72
2023/05/19 05:30:36;;;;;;;4.40;3.10;;;18.10;65.00;;;;;;4956228;28;20964;-73
2023/05/19 05:33:07;;;;;;;3.63;2.70;;;18.10;65.00;;;;;;4950733;28;20601;-73
2023/05/19 05:35:41;;;;;;;4.17;2.73;;;18.10;65.00;;;;;;4955373;28;20952;-72
2023/05/19 05:38:12;;;;;;;3.43;2.77;;;18.10;65.00;;;;;;4955644;28;20816;-72
2023/05/19 05:40:41;;;;;;;4.60;2.70;;;18.20;65.00;;;;;;4949510;28;20452;-72
2023/05/19 05:43:10;;;;;;;3.10;2.57;;;18.20;65.00;;;;;;4946012;28;20474;-73
2023/05/19 05:45:46;;;;;;;3.83;3.07;;;18.10;65.10;;;;;;4954534;28;21029;-72
2023/05/19 05:48:16;;;;;;;2.63;2.20;;;18.20;65.20;;;;;;4948359;28;20846;-73
2023/05/19 05:50:46;;;;;;;3.00;2.70;;;18.10;65.20;;;;;;4957970;28;20538;-73
2023/05/19 05:53:20;;;;;;;3.63;2.70;;;18.10;65.30;;;;;;4951289;28;20523;-72
2023/05/19 05:55:53;;;;;;;3.23;2.63;;;18.10;65.40;;;;;;4936539;28;20876;-73
2023/05/19 05:58:27;;;;;;;3.30;2.67;;;18.10;65.50;;;;;;4946404;28;20547;-72
2023/05/19 06:00:57;;;;;;;4.80;3.17;;;18.10;65.50;;;;;;4949514;28;20432;-72
2023/05/19 06:03:27;;;;;;;3.17;2.47;;;18.10;65.50;;;;;;4955551;28;20468;-73
2023/05/19 06:05:59;;;;;;;3.17;2.43;;;18.10;65.50;;;;;;4948184;28;20492;-72
2023/05/19 06:08:27;;;;;;;3.90;3.07;;;18.10;65.60;;;;;;4948988;28;20440;-73
2023/05/19 06:10:57;;;;;;;3.03;2.80;;;18.10;65.70;;;;;;4952893;28;20460;-72
2023/05/19 06:13:25;;;;;;;8.60;2.70;;;18.10;65.70;;;;;;4974307;28;20543;-73
2023/05/19 06:15:54;;;;;;;2.67;2.20;;;18.10;65.80;;;;;;4949442;29;20429;-73
2023/05/19 06:18:32;;;;;;;3.67;2.53;;;18.10;65.90;;;;;;4944203;28;20455;-73
2023/05/19 06:21:02;;;;;;;3.17;2.80;;;18.10;65.80;;;;;;4953404;28;20490;-73
2023/05/19 06:23:31;;;;;;;3.57;2.77;;;18.10;66.20;;;;;;4947605;28;20452;-73
2023/05/19 06:26:00;;;;;;;4.10;2.80;;;18.10;65.70;;;;;;4951003;28;20506;-73
2023/05/19 06:28:29;;;;;;;3.53;3.00;;;18.10;65.60;;;;;;4947326;28;20459;-73
2023/05/19 06:30:58;;;;;;;6.27;2.80;;;18.10;65.60;;;;;;4950203;28;20491;-73
2023/05/19 06:33:48;;;;;;;4.10;3.00;;;18.10;65.00;;;;;;4942497;28;20487;-73
2023/05/19 06:36:17;;;;;;;4.27;3.30;;;18.10;64.70;;;;;;4947148;28;20562;-73
2023/05/19 06:38:46;;;;;;;5.20;4.13;;;18.10;64.90;;;;;;4948522;28;20543;-72
2023/05/19 06:41:14;;;;;;;4.53;3.60;;;18.10;64.70;;;;;;4948760;28;20436;-73
2023/05/19 06:43:43;;;;;;;3.53;2.63;;;18.10;64.40;;;;;;4937710;28;20487;-73
2023/05/19 06:46:16;;;;;;;3.43;2.53;;;18.10;64.40;;;;;;4946281;28;20483;-73
2023/05/19 06:48:45;;;;;;;2.63;2.17;;;18.10;64.20;;;;;;4948138;28;20464;-73
2023/05/19 06:51:20;;;;;;;3.27;2.70;;;18.10;64.20;;;;;;4945401;28;20459;-72
2023/05/19 06:53:53;;;;;;;4.50;3.20;;;18.10;64.20;;;;;;4947054;28;20572;-72
2023/05/19 06:56:22;;;;;;;3.40;3.03;;;18.10;63.10;;;;;;4946647;28;20451;-73
2023/05/19 06:58:51;;;;;;;3.93;3.07;;;18.20;63.10;;;;;;4946460;28;20916;-72
2023/05/19 07:01:25;;;;;;;4.23;3.20;;;18.20;62.50;;;;;;4946392;28;20451;-73
2023/05/19 07:03:56;;;;;;;4.97;2.80;;;18.20;62.10;;;;;;4946354;28;20475;-73
2023/05/19 07:06:26;;;;;;;3.20;2.90;;;18.20;62.80;;;;;;4954795;28;21034;-72
2023/05/19 07:08:55;;;;;;;4.20;2.73;;;18.20;62.20;;;;;;4947045;28;20523;-73
2023/05/19 07:11:25;;;;;;;3.40;2.60;;;18.20;62.10;;;;;;4943053;28;20476;-73
2023/05/19 07:13:54;;;;;;;7.50;3.07;;;18.20;62.10;;;;;;4941730;28;20586;-74
2023/05/19 07:16:27;;;;;;;5.20;2.80;;;18.20;62.10;;;;;;4948009;28;20432;-73
2023/05/19 07:18:56;;;;;;;5.37;2.97;;;18.30;62.20;;;;;;4950467;28;20475;-72
2023/05/19 07:21:26;;;;;;;3.67;2.80;;;18.30;62.20;;;;;;4952206;28;20451;-73
2023/05/19 07:23:54;;;;;;;4.30;3.10;;;18.30;62.20;;;;;;4945341;28;20472;-73
2023/05/19 07:26:23;;;;;;;3.87;3.07;;;18.30;62.20;;;;;;4954427;28;20953;-73
2023/05/19 07:28:51;;;;;;;3.97;2.47;;;18.30;62.20;;;;;;4944406;28;20575;-73
2023/05/19 07:31:20;;;;;;;6.10;2.93;;;18.30;62.20;;;;;;4946489;28;20444;-72
2023/05/19 07:33:48;;;;;;;2.60;2.40;;;18.30;62.20;;;;;;4946971;28;20504;-72
2023/05/19 07:36:20;;;;;;;3.13;2.30;;;18.30;62.30;;;;;;4939796;29;20879;-73
2023/05/19 07:38:50;;;;;;;4.30;2.50;;;18.30;62.20;;;;;;4940947;28;20460;-73
2023/05/19 07:41:18;;;;;;;2.60;2.30;;;18.30;62.60;;;;;;4947809;28;20560;-73
2023/05/19 07:43:47;;;;;;;4.10;2.67;;;18.30;63.00;;;;;;4944750;28;20852;-73
2023/05/19 07:46:15;;;;;;;3.70;2.50;;;18.30;63.20;;;;;;4956442;28;20473;-72
2023/05/19 07:48:43;;;;;;;4.00;2.67;;;18.30;63.50;;;;;;4947250;28;20554;-73
2023/05/19 07:51:13;;;;;;;3.73;2.43;;;18.30;63.60;;;;;;4946339;28;20510;-73
2023/05/19 07:53:41;;;;;;;3.87;2.40;;;18.30;63.10;;;;;;4939732;28;20461;-73
2023/05/19 07:56:11;;;;;;;5.40;2.90;;;18.30;63.40;;;;;;4955565;28;20432;-71
2023/05/19 07:58:41;;;;;;;3.10;2.50;;;18.30;63.50;;;;;;4951939;28;20825;-72
2023/05/19 08:01:09;;;;;;;3.63;2.10;;;18.30;63.60;;;;;;4951569;28;20829;-73
2023/05/19 08:03:37;;;;;;;4.27;2.70;;;18.30;63.60;;;;;;4942794;28;20475;-72
2023/05/19 08:06:06;;;;;;;2.97;2.27;;;18.30;63.60;;;;;;4943824;28;20467;-73
2023/05/19 08:08:34;;;;;;;3.40;2.43;;;18.30;63.70;;;;;;4947224;28;20449;-72
2023/05/19 08:11:03;;;;;;;3.27;2.50;;;18.30;63.90;;;;;;4951464;28;20797;-73
2023/05/19 08:13:34;;;;;;;2.50;2.20;;;18.30;64.20;;;;;;4943692;28;21007;-73
2023/05/19 08:16:02;;;;;;;4.20;2.33;;;18.30;63.90;;;;;;4956168;28;20975;-73
2023/05/19 08:18:31;;;;;;;3.10;2.50;;;18.30;64.20;;;;;;4947500;28;21006;-72
2023/05/19 08:21:00;;;;;;;3.37;2.67;;;18.30;64.00;;;;;;4945500;28;20572;-73
2023/05/19 08:23:28;;;;;;;4.07;2.37;;;18.30;65.40;;;;;;4947403;28;20474;-73
2023/05/19 08:25:57;;;;;;;2.43;2.20;;;18.30;64.10;;;;;;4959066;28;20889;-73
2023/05/19 08:28:25;;;;;;;2.33;2.13;;;18.30;64.00;;;;;;4957755;28;20450;-73
2023/05/19 08:30:55;;;;;;;8.60;3.50;;;18.30;63.70;;;;;;4946930;28;20904;-72
2023/05/19 08:33:23;;;;;;;5.40;2.97;;;18.40;59.20;;;;;;4946562;28;20468;-72
2023/05/19 08:35:52;;;;;;;3.63;3.07;;;18.50;61.60;;;;;;4959329;28;20460;-73
2023/05/19 08:38:20;;;;;;;2.43;2.13;;;18.40;62.30;;;;;;4942496;28;20479;-73
2023/05/19 08:40:49;;;;;;;5.47;2.53;;;18.40;62.40;;;;;;4946074;28;20821;-72
2023/05/19 08:43:17;;;;;;;2.67;2.40;;;18.40;63.10;;;;;;4948315;28;20469;-72
2023/05/19 08:45:47;;;;;;;2.63;2.40;;;18.30;63.20;;;;;;4941578;28;20467;-71
2023/05/19 08:48:18;;;;;;;3.10;2.80;;;18.40;63.30;;;;;;4954198;28;20479;-72
2023/05/19 08:50:53;;;;;;;2.67;1.90;;;18.30;63.30;;;;;;4950440;28;20469;-73
2023/05/19 08:53:26;;;;;;;3.57;2.80;;;18.30;63.70;;;;;;4954799;28;20999;-72
2023/05/19 08:56:09;;;;;;;3.77;2.27;;;18.30;63.70;;;;;;4939461;28;20960;-73
2023/05/19 08:58:40;;;;;;;3.23;2.57;;;18.30;63.60;;;;;;4952898;28;20567;-72
2023/05/19 09:01:09;;;;;;;2.73;2.10;;;18.30;63.90;;;;;;4944001;28;20467;-73
2023/05/19 09:03:40;;;;;;;4.80;2.70;;;18.30;63.90;;;;;;4962571;28;20466;-72
2023/05/19 09:06:11;;;;;;;2.97;2.20;;;18.30;63.60;;;;;;4957582;28;20553;-74
2023/05/19 09:08:40;;;;;;;3.30;2.37;;;18.30;64.10;;;;;;4952181;28;20990;-72
2023/05/19 09:11:10;;;;;;;2.20;1.90;;;18.30;64.10;;;;;;4954576;28;20495;-73
2023/05/19 09:13:38;;;;;;;4.27;2.60;;;18.30;64.30;;;;;;4943864;28;20478;-73
2023/05/19 09:16:07;;;;;;;2.87;2.57;;;18.20;63.80;;;;;;4945907;28;20498;-73
2023/05/19 09:18:41;;;;;;;3.30;2.33;;;18.20;63.80;;;;;;4945396;28;20463;-75
2023/05/19 09:21:10;;;;;;;3.13;2.23;;;18.30;64.00;;;;;;4958185;28;20452;-72
2023/05/19 09:23:39;;;;;;;2.53;2.20;;;18.20;63.70;;;;;;4949120;28;20770;-73
2023/05/19 09:26:07;;;;;;;4.47;2.80;;;18.30;64.00;;;;;;4948188;28;21000;-72
2023/05/19 09:28:37;;;;;;;5.60;2.87;;;18.20;58.50;;;;;;4942654;28;20486;-73
2023/05/19 09:31:07;;;;;;;5.70;2.73;;;18.10;59.00;;;;;;4954295;28;20450;-72
2023/05/19 09:33:37;;;;;;;4.07;2.30;;;18.10;60.20;;;;;;4950455;28;20964;-72
2023/05/19 09:36:09;;;;;;;3.20;2.40;;;18.10;61.20;;;;;;4946338;28;20459;-72
2023/05/19 09:38:38;;;;;;;3.10;2.50;;;18.20;62.10;;;;;;4950860;28;20463;-72
2023/05/19 09:41:08;;;;;;;3.70;2.40;;;18.20;62.10;;;;;;4953617;28;20447;-72
2023/05/19 09:43:37;;;;;;;3.63;2.53;;;18.20;62.10;;;;;;4946340;28;20514;-72
2023/05/19 09:46:06;;;;;;;2.67;2.33;;;18.20;62.10;;;;;;4965840;28;20468;-72
2023/05/19 09:48:35;;;;;;;4.03;2.50;;;18.20;62.10;;;;;;4949373;28;20969;-72
2023/05/19 09:51:09;;;;;;;2.63;2.10;;;18.20;62.30;;;;;;4946192;28;20459;-66
2023/05/19 09:53:38;;;;;;;6.90;2.50;;;18.20;62.80;;;;;;4947624;28;20463;-67
2023/05/19 09:56:08;;;;;;;4.50;3.30;;;18.20;62.80;;;;;;4951241;28;20470;-67
2023/05/19 09:58:37;;;;;;;4.60;2.70;;;18.20;62.20;;;;;;4957132;28;20889;-67
2023/05/19 10:01:07;;;;;;;3.10;2.30;;;18.20;62.10;;;;;;4953215;28;20789;-65
2023/05/19 10:03:35;;;;;;;3.40;2.20;;;18.20;62.10;;;;;;4949982;28;20908;-66
2023/05/19 10:06:06;;;;;;;3.27;2.27;;;18.20;62.20;;;;;;4956880;28;20869;-65
2023/05/19 10:08:34;;;;;;;2.67;2.07;;;18.20;62.20;;;;;;4937821;28;20574;-66
2023/05/19 10:11:03;;;;;;;6.43;3.17;;;18.20;62.50;;;;;;4946377;28;20465;-67
2023/05/19 10:13:34;;;;;;;3.30;2.30;;;18.20;62.10;;;;;;4945594;28;20837;-67
2023/05/19 10:16:03;;;;;;;5.07;2.60;;;18.30;62.30;;;;;;4956703;28;20451;-66
2023/05/19 10:18:34;;;;;;;4.10;2.00;;;18.30;62.20;;;;;;4951116;28;20570;-67
2023/05/19 10:21:08;;;;;;;3.53;2.40;;;18.30;62.20;;;;;;4946425;28;20456;-67
2023/05/19 10:23:36;;;;;;;4.03;2.50;;;18.30;62.20;;;;;;4941175;28;20471;-65
2023/05/19 10:26:06;;;;;;;3.80;2.50;;;18.30;62.20;;;;;;4956826;28;20476;-67
2023/05/19 10:28:37;;;;;;;4.10;2.60;;;18.30;62.20;;;;;;4941821;28;20464;-66
2023/05/19 10:31:10;;;;;;;9.47;2.70;;;18.30;62.20;;;;;;4949643;28;20432;-67
2023/05/19 10:33:58;;;;;;;2.93;2.20;;;18.30;62.20;;;;;;4947794;28;20471;-67
2023/05/19 10:36:44;;;;;;;4.30;2.37;;;18.30;62.20;;;;;;4942286;28;20878;-66
2023/05/19 10:39:18;;;;;;;3.70;2.33;;;18.30;62.20;;;;;;4947928;28;20479;-69
2023/05/19 10:41:56;;;;;;;4.90;2.80;;;18.30;62.20;;;;;;4948816;28;20455;-66
2023/05/19 10:44:40;;;;;;;6.63;2.80;;;18.30;62.20;;;;;;4945976;28;20514;-73
2023/05/19 10:47:10;;;;;;;3.30;2.47;;;18.30;62.20;;;;;;4932312;29;20499;-71
2023/05/19 10:49:40;;;;;;;3.43;2.23;;;18.30;62.00;;;;;;4942869;28;20993;-72
2023/05/19 10:52:21;;;;;;;3.77;2.43;;;18.30;61.60;;;;;;4945613;28;20440;-73
2023/05/19 10:54:53;;;;;;;5.93;2.30;;;18.30;61.00;;;;;;4951008;28;20472;-72
2023/05/19 10:57:26;;;;;;;6.07;2.70;;;18.30;62.20;;;;;;4944773;28;20436;-72
2023/05/19 10:59:56;;;;;;;2.10;1.90;;;18.30;62.20;;;;;;4955088;28;20555;-73
2023/05/19 11:02:39;;;;;;;8.73;2.63;;;18.20;62.10;;;;;;4949711;28;20452;-73
2023/05/19 11:05:09;;;;;;;2.00;1.80;;;18.30;62.20;;;;;;4948588;28;20577;-71
2023/05/19 11:07:42;;;;;;;3.20;2.20;;;18.30;62.30;;;;;;4948179;28;20482;-71
2023/05/19 11:10:11;;;;;;;2.47;2.03;;;18.30;62.30;;;;;;4944241;28;20477;-73
2023/05/19 11:12:41;;;;;;;4.67;2.33;;;18.30;62.20;;;;;;4963681;28;20966;-72
2023/05/19 11:15:15;;;;;;;2.33;1.80;;;18.30;61.90;;;;;;4948159;28;20503;-72
2023/05/19 11:17:48;;;;;;;2.80;2.30;;;18.30;62.20;;;;;;4942951;28;20452;-72
2023/05/19 11:20:24;;;;;;;2.20;1.90;;;18.30;62.20;;;;;;4944738;28;20484;-72
2023/05/19 11:23:05;;;;;;;4.93;2.00;;;18.30;62.20;;;;;;4946470;28;20646;-72
2023/05/19 11:25:45;;;;;;;2.37;2.10;;;18.30;62.20;;;;;;4950978;28;20453;-71
2023/05/19 11:28:18;;;;;;;3.10;2.07;;;18.30;62.20;;;;;;4943194;28;20468;-73
2023/05/19 11:30:49;;;;;;;2.47;2.17;;;18.30;62.00;;;;;;4951075;28;20898;-73
2023/05/19 11:33:18;;;;;;;3.93;2.30;;;18.30;62.20;;;;;;4947577;28;20531;-72
2023/05/19 11:35:48;;;;;;;4.70;2.30;;;18.30;62.20;;;;;;4947094;28;20487;-73
2023/05/19 11:38:19;;;;;;;2.93;1.97;;;18.30;63.00;;;;;;4947534;28;20475;-73
2023/05/19 11:40:48;;;;;;;3.40;2.07;;;18.30;62.20;;;;;;4947427;28;20452;-73
2023/05/19 11:43:17;;;;;;;2.37;2.03;;;18.30;62.20;;;;;;4954789;28;20541;-73
2023/05/19 11:45:45;;;;;;;3.17;2.30;;;18.30;62.20;;;;;;4948064;28;20433;-71
2023/05/19 11:48:16;;;;;;;3.10;2.17;;;18.30;61.90;;;;;;4946390;28;20460;-72
2023/05/19 11:50:45;;;;;;;3.37;2.17;;;18.40;62.30;;;;;;4953872;28;20483;-73
2023/05/19 11:53:15;;;;;;;3.30;2.30;;;18.40;62.30;;;;;;4947286;28;20487;-71
2023/05/19 11:55:45;;;;;;;4.23;2.67;;;18.40;61.50;;;;;;4939915;29;20435;-72
2023/05/19 11:58:15;;;;;;;4.97;2.63;;;18.40;61.20;;;;;;4941434;29;21008;-72
2023/05/19 12:00:46;;;;;;;3.90;2.77;;;18.40;61.40;;;;;;4955834;28;20428;-73
2023/05/19 12:03:16;;;;;;;3.60;2.50;;;18.40;61.40;;;;;;4947106;29;20475;-72
2023/05/19 12:05:47;;;;;;;2.73;2.53;;;18.40;61.90;;;;;;4947829;28;20515;-72
2023/05/19 12:08:18;;;;;;;3.50;2.07;;;18.40;62.30;;;;;;4946588;28;20472;-72
2023/05/19 12:10:50;;;;;;;2.90;2.30;;;18.40;61.60;;;;;;4945135;28;21034;-72
2023/05/19 12:13:21;;;;;;;3.07;2.00;;;18.40;61.80;;;;;;4945663;28;20483;-67
2023/05/19 12:15:51;;;;;;;3.30;1.90;;;18.40;61.90;;;;;;4946974;29;20978;-68
2023/05/19 12:18:19;;;;;;;3.57;2.80;;;18.40;61.60;;;;;;4945003;28;20468;-67
2023/05/19 12:20:48;;;;;;;3.60;3.20;;;18.40;60.70;;;;;;4945901;28;20440;-66
2023/05/19 12:23:16;;;;;;;4.70;2.40;;;18.40;61.10;;;;;;4946527;29;20459;-67
2023/05/19 12:25:45;;;;;;;2.63;2.20;;;18.40;60.30;;;;;;4955626;28;20590;-67
2023/05/19 12:28:16;;;;;;;3.80;2.00;;;18.40;61.40;;;;;;4945795;28;20485;-66
2023/05/19 12:30:48;;;;;;;3.67;2.70;;;18.40;62.10;;;;;;4940793;29;21047;-67
2023/05/19 12:33:17;;;;;;;3.60;2.33;;;18.40;62.00;;;;;;4946218;29;20467;-67
2023/05/19 12:35:46;;;;;;;4.23;2.37;;;18.40;62.30;;;;;;4944158;29;20456;-66
2023/05/19 12:38:15;;;;;;;5.40;3.00;;;18.50;62.40;;;;;;4946754;28;20475;-66
2023/05/19 12:40:44;;;;;;;3.87;2.53;;;18.50;61.50;;;;;;4947278;29;20498;-67
2023/05/19 12:43:21;;;;;;;3.10;1.90;;;18.50;61.80;;;;;;4943837;29;20992;-66
2023/05/19 12:45:50;;;;;;;3.77;2.17;;;18.50;61.30;;;;;;4947217;29;20460;-66
2023/05/19 12:48:21;;;;;;;3.47;2.10;;;18.50;61.90;;;;;;4947577;29;20480;-67
2023/05/19 12:50:53;;;;;;;2.97;2.67;;;18.50;62.10;;;;;;4944283;29;20542;-67
2023/05/19 12:53:22;;;;;;;2.30;2.03;;;18.50;61.90;;;;;;4945814;28;20992;-67
2023/05/19 12:55:53;;;;;;;4.30;2.67;;;18.50;61.20;;;;;;4947736;29;20428;-67
2023/05/19 12:58:23;;;;;;;2.67;2.10;;;18.50;61.90;;;;;;4947110;29;20536;-66
2023/05/19 13:00:58;;;;;;;2.70;1.77;;;18.60;62.10;;;;;;4944806;29;20455;-66
2023/05/19 13:03:27;;;;;;;4.93;2.30;;;18.50;62.40;;;;;;4948277;29;20456;-66
2023/05/19 13:05:55;;;;;;;3.23;2.00;;;18.60;62.50;;;;;;4945291;29;20459;-67